createdAt,value
2023-03-22T00:04:50.491Z,5.53
2023-03-22T00:09:42.238Z,5.50
2023-03-22T00:14:33.942Z,5.63
2023-03-22T00:19:26.691Z,5.83
2023-03-22T00:24:18.449Z,6.13
2023-03-22T00:29:10.304Z,6.40
2023-03-22T00:34:02.287Z,5.73
2023-03-22T00:38:54.030Z,6.40
2023-03-22T00:43:47.115Z,5.80
2023-03-22T00:48:38.851Z,5.37
2023-03-22T00:53:32.939Z,6.07
2023-03-22T00:58:24.938Z,6.47
2023-03-22T01:03:17.415Z,5.50
2023-03-22T01:08:10.424Z,6.33
2023-03-22T01:13:02.362Z,6.03
2023-03-22T01:17:54.421Z,6.00
2023-03-22T01:22:46.162Z,6.50
2023-03-22T01:27:37.970Z,6.00
2023-03-22T01:32:29.652Z,6.40
2023-03-22T01:37:22.203Z,6.27
2023-03-22T01:42:16.116Z,5.40
2023-03-22T01:47:10.821Z,6.37
2023-03-22T01:52:08.383Z,5.67
2023-03-22T01:57:12.928Z,5.50
2023-03-22T02:02:07.707Z,5.53
2023-03-22T02:07:09.842Z,5.30
2023-03-22T02:12:24.090Z,5.43
2023-03-22T02:17:28.130Z,5.80
2023-03-22T02:22:53.223Z,4.97
2023-03-22T02:28:02.120Z,5.00
2023-03-22T02:33:14.004Z,5.20
2023-03-22T02:38:25.772Z,4.77
2023-03-22T02:43:34.740Z,4.83
2023-03-22T02:48:53.295Z,5.23
2023-03-22T02:53:52.292Z,4.80
2023-03-22T02:58:47.703Z,4.80
2023-03-22T03:03:39.887Z,4.97
2023-03-22T03:08:33.318Z,4.70
2023-03-22T03:13:26.314Z,4.33
2023-03-22T03:18:37.790Z,5.20
2023-03-22T03:23:39.089Z,4.33
2023-03-22T03:28:40.007Z,4.10
2023-03-22T03:33:34.613Z,4.00
2023-03-22T03:38:33.591Z,4.20
2023-03-22T03:43:28.167Z,4.23
2023-03-22T03:48:24.020Z,4.23
2023-03-22T03:53:16.053Z,4.10
2023-03-22T03:58:09.489Z,4.10
2023-03-22T04:03:01.509Z,4.17
2023-03-22T04:08:26.167Z,4.57
2023-03-22T04:13:21.525Z,5.07
2023-03-22T04:18:14.352Z,5.30
2023-03-22T04:23:06.221Z,4.97
2023-03-22T04:28:00.598Z,5.00
2023-03-22T04:32:54.784Z,5.90
2023-03-22T04:37:53.871Z,4.93
2023-03-22T04:42:46.907Z,5.30
2023-03-22T04:47:45.451Z,5.80
2023-03-22T04:52:37.261Z,5.53
2023-03-22T04:57:29.305Z,6.27
2023-03-22T05:02:21.860Z,5.90
2023-03-22T05:07:15.146Z,6.60
2023-03-22T05:12:12.824Z,6.13
2023-03-22T05:17:27.336Z,6.73
2023-03-22T05:22:22.473Z,6.33
2023-03-22T05:27:16.132Z,6.43
2023-03-22T05:32:09.803Z,6.40
2023-03-22T05:37:02.357Z,6.57
2023-03-22T05:41:59.577Z,6.13
2023-03-22T05:46:51.355Z,6.47
2023-03-22T05:51:58.965Z,6.20
2023-03-22T05:57:01.518Z,5.93
2023-03-22T06:01:53.900Z,5.40
2023-03-22T06:06:48.454Z,5.53
2023-03-22T06:11:56.134Z,5.20
2023-03-22T06:16:48.490Z,5.33
2023-03-22T06:21:40.344Z,5.00
2023-03-22T06:26:32.335Z,4.60
2023-03-22T06:31:24.064Z,4.03
2023-03-22T06:36:20.618Z,3.87
2023-03-22T06:41:32.544Z,3.80
2023-03-22T06:46:26.246Z,3.87
2023-03-22T06:51:27.696Z,3.87
2023-03-22T06:56:20.495Z,3.50
2023-03-22T07:01:16.129Z,3.50
2023-03-22T07:06:08.944Z,3.40
2023-03-22T07:11:05.383Z,3.50
2023-03-22T07:16:02.000Z,3.10
2023-03-22T07:21:14.525Z,3.73
2023-03-22T07:26:08.603Z,3.40
2023-03-22T07:31:06.314Z,3.20
2023-03-22T07:36:09.600Z,3.10
2023-03-22T07:41:02.002Z,2.30
2023-03-22T07:46:10.458Z,2.90
2023-03-22T07:51:31.558Z,2.80
2023-03-22T07:56:23.287Z,2.63
2023-03-22T08:01:15.131Z,2.47
2023-03-22T08:06:33.169Z,2.93
2023-03-22T08:11:25.670Z,2.33
2023-03-22T08:16:17.540Z,2.40
2023-03-22T08:21:10.554Z,1.73
2023-03-22T08:26:03.942Z,1.63
2023-03-22T08:30:58.138Z,1.50
2023-03-22T08:35:51.102Z,1.53
2023-03-22T08:40:47.292Z,2.27
2023-03-22T08:45:42.759Z,1.60
2023-03-22T08:50:40.376Z,1.73
2023-03-22T08:55:45.040Z,2.47
2023-03-22T09:00:48.261Z,1.63
2023-03-22T09:05:50.724Z,1.53
2023-03-22T09:10:42.765Z,1.83
2023-03-22T09:15:36.863Z,1.60
2023-03-22T09:20:38.666Z,1.40
2023-03-22T09:25:33.091Z,1.80
2023-03-22T09:30:25.208Z,1.17
2023-03-22T09:35:17.119Z,0.90
2023-03-22T09:40:32.372Z,1.50
2023-03-22T09:45:43.015Z,1.20
2023-03-22T09:50:44.203Z,2.40
2023-03-22T09:55:38.915Z,2.30
2023-03-22T10:00:43.876Z,1.33
2023-03-22T10:05:47.284Z,1.60
2023-03-22T10:10:41.996Z,1.37
2023-03-22T10:15:33.691Z,1.73
2023-03-22T10:20:42.052Z,1.70
2023-03-22T10:25:38.609Z,1.10
2023-03-22T10:30:37.153Z,1.30
2023-03-22T10:35:30.791Z,1.10
2023-03-22T10:40:29.184Z,2.17
2023-03-22T10:45:21.571Z,1.67
2023-03-22T10:50:44.376Z,1.60
2023-03-22T10:55:41.158Z,1.40
2023-03-22T11:00:33.074Z,1.27
2023-03-22T11:05:27.773Z,1.33
2023-03-22T11:10:24.316Z,1.60
2023-03-22T11:15:29.508Z,1.67
2023-03-22T11:20:21.342Z,1.20
2023-03-22T11:25:21.736Z,1.37
2023-03-22T11:30:28.893Z,1.47
2023-03-22T11:35:23.245Z,1.20
2023-03-22T11:40:18.986Z,1.30
2023-03-22T11:45:16.960Z,1.10
2023-03-22T11:50:26.763Z,1.27
2023-03-22T11:55:18.968Z,1.33
2023-03-22T12:00:19.938Z,1.20
2023-03-22T12:05:18.936Z,1.40
2023-03-22T12:10:16.162Z,1.23
2023-03-22T12:15:21.078Z,1.73
2023-03-22T12:20:15.847Z,1.13
2023-03-22T12:25:17.812Z,1.27
2023-03-22T12:30:21.397Z,1.30
2023-03-22T12:35:18.665Z,1.00
2023-03-22T12:40:32.490Z,1.47
2023-03-22T12:45:27.995Z,1.67
2023-03-22T12:50:33.662Z,1.37
2023-03-22T12:55:29.670Z,1.33
2023-03-22T13:00:27.783Z,1.60
2023-03-22T13:05:19.583Z,1.00
2023-03-22T13:10:29.612Z,1.47
2023-03-22T13:15:41.831Z,0.90
2023-03-22T13:20:34.404Z,1.50
2023-03-22T13:25:34.190Z,1.60
2023-03-22T13:30:26.344Z,1.47
2023-03-22T13:35:23.821Z,1.27
2023-03-22T13:40:26.486Z,1.27
2023-03-22T13:45:33.997Z,1.10
2023-03-22T13:50:30.134Z,1.13
2023-03-22T13:55:36.826Z,1.20
2023-03-22T14:00:31.443Z,1.40
2023-03-22T14:05:24.393Z,1.07
2023-03-22T14:10:43.385Z,1.53
2023-03-22T14:15:41.177Z,1.40
2023-03-22T14:20:38.775Z,1.50
